sensor_id;sensor_type;location;lat;lon;timestamp;P1;durP1;ratioP1;P2;durP2;ratioP2
4210;SDS011;2119;48.828;12.396;2023-03-30T00:03:34;29.63;;;18.43;;
4210;SDS011;2119;48.828;12.396;2023-03-30T00:08:37;23.90;;;18.30;;
4210;SDS011;2119;48.828;12.396;2023-03-30T00:13:38;25.27;;;18.75;;
4210;SDS011;2119;48.828;12.396;2023-03-30T00:18:38;30.80;;;18.97;;
4210;SDS011;2119;48.828;12.396;2023-03-30T00:23:39;27.97;;;19.20;;
4210;SDS011;2119;48.828;12.396;2023-03-30T00:28:39;22.05;;;17.15;;
4210;SDS011;2119;48.828;12.396;2023-03-30T00:33:39;24.83;;;16.90;;
4210;SDS011;2119;48.828;12.396;2023-03-30T00:38:40;28.43;;;17.90;;
4210;SDS011;2119;48.828;12.396;2023-03-30T00:49:03;23.33;;;18.60;;
4210;SDS011;2119;48.828;12.396;2023-03-30T00:54:08;25.53;;;17.93;;
4210;SDS011;2119;48.828;12.396;2023-03-30T00:59:10;24.30;;;18.80;;
4210;SDS011;2119;48.828;12.396;2023-03-30T01:04:10;25.85;;;18.45;;
4210;SDS011;2119;48.828;12.396;2023-03-30T01:09:11;25.17;;;16.60;;
4210;SDS011;2119;48.828;12.396;2023-03-30T01:14:11;23.43;;;18.30;;
4210;SDS011;2119;48.828;12.396;2023-03-30T01:35:22;23.73;;;18.40;;
4210;SDS011;2119;48.828;12.396;2023-03-30T01:40:47;24.20;;;17.63;;
4210;SDS011;2119;48.828;12.396;2023-03-30T01:50:52;25.80;;;19.10;;
4210;SDS011;2119;48.828;12.396;2023-03-30T02:00:59;22.10;;;16.97;;
4210;SDS011;2119;48.828;12.396;2023-03-30T02:06:10;22.87;;;17.17;;
4210;SDS011;2119;48.828;12.396;2023-03-30T02:11:13;23.93;;;18.30;;
4210;SDS011;2119;48.828;12.396;2023-03-30T02:16:28;22.50;;;17.07;;
4210;SDS011;2119;48.828;12.396;2023-03-30T02:21:30;22.30;;;17.83;;
4210;SDS011;2119;48.828;12.396;2023-03-30T02:26:31;27.47;;;18.43;;
4210;SDS011;2119;48.828;12.396;2023-03-30T02:31:32;22.70;;;16.93;;
4210;SDS011;2119;48.828;12.396;2023-03-30T02:36:40;24.13;;;16.98;;
4210;SDS011;2119;48.828;12.396;2023-03-30T02:47:07;23.90;;;17.53;;
4210;SDS011;2119;48.828;12.396;2023-03-30T03:02:39;25.43;;;16.60;;
4210;SDS011;2119;48.828;12.396;2023-03-30T03:07:41;28.37;;;16.57;;
4210;SDS011;2119;48.828;12.396;2023-03-30T03:12:41;24.70;;;17.23;;
4210;SDS011;2119;48.828;12.396;2023-03-30T03:17:43;24.20;;;17.77;;
4210;SDS011;2119;48.828;12.396;2023-03-30T03:22:44;22.70;;;17.33;;
4210;SDS011;2119;48.828;12.396;2023-03-30T03:27:44;25.70;;;18.02;;
4210;SDS011;2119;48.828;12.396;2023-03-30T03:32:45;24.57;;;17.57;;
4210;SDS011;2119;48.828;12.396;2023-03-30T03:37:45;27.07;;;17.37;;
4210;SDS011;2119;48.828;12.396;2023-03-30T03:42:45;25.90;;;18.60;;
4210;SDS011;2119;48.828;12.396;2023-03-30T03:47:46;25.87;;;16.20;;
4210;SDS011;2119;48.828;12.396;2023-03-30T03:52:48;26.83;;;18.07;;
4210;SDS011;2119;48.828;12.396;2023-03-30T03:57:49;23.73;;;16.67;;
4210;SDS011;2119;48.828;12.396;2023-03-30T04:02:49;22.80;;;16.97;;
4210;SDS011;2119;48.828;12.396;2023-03-30T04:07:49;25.73;;;17.40;;
4210;SDS011;2119;48.828;12.396;2023-03-30T04:12:55;24.93;;;17.70;;
4210;SDS011;2119;48.828;12.396;2023-03-30T04:17:56;22.77;;;16.67;;
4210;SDS011;2119;48.828;12.396;2023-03-30T04:23:00;23.30;;;15.70;;
4210;SDS011;2119;48.828;12.396;2023-03-30T04:28:00;26.67;;;15.20;;
4210;SDS011;2119;48.828;12.396;2023-03-30T04:33:03;19.73;;;15.33;;
4210;SDS011;2119;48.828;12.396;2023-03-30T04:38:04;23.67;;;16.13;;
4210;SDS011;2119;48.828;12.396;2023-03-30T04:43:05;23.80;;;16.33;;
4210;SDS011;2119;48.828;12.396;2023-03-30T04:48:06;24.93;;;16.83;;
4210;SDS011;2119;48.828;12.396;2023-03-30T04:53:06;21.63;;;15.80;;
4210;SDS011;2119;48.828;12.396;2023-03-30T04:58:07;26.10;;;16.80;;
4210;SDS011;2119;48.828;12.396;2023-03-30T05:03:08;21.87;;;16.53;;
4210;SDS011;2119;48.828;12.396;2023-03-30T05:08:08;29.95;;;19.20;;
4210;SDS011;2119;48.828;12.396;2023-03-30T05:13:10;23.00;;;16.97;;
4210;SDS011;2119;48.828;12.396;2023-03-30T05:18:10;23.48;;;17.60;;
4210;SDS011;2119;48.828;12.396;2023-03-30T05:23:10;29.00;;;18.70;;
4210;SDS011;2119;48.828;12.396;2023-03-30T05:28:11;29.57;;;17.60;;
4210;SDS011;2119;48.828;12.396;2023-03-30T05:33:11;21.47;;;18.03;;
4210;SDS011;2119;48.828;12.396;2023-03-30T05:38:12;31.53;;;19.20;;
4210;SDS011;2119;48.828;12.396;2023-03-30T05:43:12;24.00;;;18.93;;
4210;SDS011;2119;48.828;12.396;2023-03-30T05:48:12;25.20;;;17.70;;
4210;SDS011;2119;48.828;12.396;2023-03-30T05:53:13;23.63;;;18.30;;
4210;SDS011;2119;48.828;12.396;2023-03-30T05:58:13;28.50;;;18.10;;
4210;SDS011;2119;48.828;12.396;2023-03-30T06:03:15;24.77;;;17.47;;
4210;SDS011;2119;48.828;12.396;2023-03-30T06:08:16;32.50;;;21.97;;
4210;SDS011;2119;48.828;12.396;2023-03-30T06:13:16;30.52;;;20.55;;
4210;SDS011;2119;48.828;12.396;2023-03-30T06:18:16;26.47;;;18.00;;
4210;SDS011;2119;48.828;12.396;2023-03-30T06:23:17;30.10;;;17.08;;
4210;SDS011;2119;48.828;12.396;2023-03-30T06:28:18;26.42;;;18.42;;
4210;SDS011;2119;48.828;12.396;2023-03-30T06:33:18;25.57;;;18.30;;
4210;SDS011;2119;48.828;12.396;2023-03-30T06:38:20;23.97;;;17.80;;
4210;SDS011;2119;48.828;12.396;2023-03-30T06:43:24;26.07;;;19.40;;
4210;SDS011;2119;48.828;12.396;2023-03-30T06:48:25;43.87;;;25.77;;
4210;SDS011;2119;48.828;12.396;2023-03-30T06:53:25;44.27;;;26.30;;
4210;SDS011;2119;48.828;12.396;2023-03-30T06:58:26;32.58;;;20.33;;
4210;SDS011;2119;48.828;12.396;2023-03-30T07:03:26;25.73;;;19.10;;
4210;SDS011;2119;48.828;12.396;2023-03-30T07:08:28;31.67;;;18.70;;
4210;SDS011;2119;48.828;12.396;2023-03-30T07:13:29;29.25;;;19.13;;
4210;SDS011;2119;48.828;12.396;2023-03-30T07:18:29;29.27;;;19.67;;
4210;SDS011;2119;48.828;12.396;2023-03-30T07:23:30;37.53;;;20.90;;
4210;SDS011;2119;48.828;12.396;2023-03-30T07:28:31;30.70;;;21.17;;
4210;SDS011;2119;48.828;12.396;2023-03-30T07:33:31;34.20;;;18.30;;
4210;SDS011;2119;48.828;12.396;2023-03-30T07:38:31;33.30;;;19.23;;
4210;SDS011;2119;48.828;12.396;2023-03-30T07:43:32;36.43;;;20.63;;
4210;SDS011;2119;48.828;12.396;2023-03-30T07:48:32;34.30;;;22.08;;
4210;SDS011;2119;48.828;12.396;2023-03-30T07:53:32;32.77;;;22.20;;
4210;SDS011;2119;48.828;12.396;2023-03-30T07:58:32;32.87;;;21.60;;
4210;SDS011;2119;48.828;12.396;2023-03-30T08:03:33;31.00;;;21.85;;
4210;SDS011;2119;48.828;12.396;2023-03-30T08:08:33;29.27;;;21.23;;
4210;SDS011;2119;48.828;12.396;2023-03-30T08:13:34;39.30;;;24.10;;
4210;SDS011;2119;48.828;12.396;2023-03-30T08:18:36;32.13;;;22.60;;
4210;SDS011;2119;48.828;12.396;2023-03-30T08:23:36;32.53;;;20.97;;
4210;SDS011;2119;48.828;12.396;2023-03-30T08:28:36;31.38;;;19.90;;
4210;SDS011;2119;48.828;12.396;2023-03-30T08:33:37;27.50;;;19.97;;
4210;SDS011;2119;48.828;12.396;2023-03-30T08:38:39;34.53;;;20.37;;
4210;SDS011;2119;48.828;12.396;2023-03-30T08:43:45;30.03;;;19.60;;
4210;SDS011;2119;48.828;12.396;2023-03-30T08:48:49;31.70;;;19.27;;
4210;SDS011;2119;48.828;12.396;2023-03-30T08:53:54;36.00;;;19.60;;
4210;SDS011;2119;48.828;12.396;2023-03-30T09:09:21;31.93;;;20.60;;
4210;SDS011;2119;48.828;12.396;2023-03-30T09:14:28;32.70;;;20.10;;
4210;SDS011;2119;48.828;12.396;2023-03-30T09:19:36;39.47;;;23.27;;
4210;SDS011;2119;48.828;12.396;2023-03-30T09:24:41;34.27;;;20.50;;
4210;SDS011;2119;48.828;12.396;2023-03-30T09:29:43;29.57;;;19.93;;
4210;SDS011;2119;48.828;12.396;2023-03-30T09:34:46;36.47;;;21.10;;
4210;SDS011;2119;48.828;12.396;2023-03-30T09:39:48;35.60;;;23.13;;
4210;SDS011;2119;48.828;12.396;2023-03-30T09:49:56;36.30;;;23.90;;
4210;SDS011;2119;48.828;12.396;2023-03-30T09:55:01;32.87;;;22.83;;
4210;SDS011;2119;48.828;12.396;2023-03-30T10:00:28;28.77;;;21.00;;
4210;SDS011;2119;48.828;12.396;2023-03-30T10:05:30;28.10;;;19.87;;
4210;SDS011;2119;48.828;12.396;2023-03-30T10:10:34;31.20;;;20.20;;
4210;SDS011;2119;48.828;12.396;2023-03-30T10:15:36;32.43;;;22.83;;
4210;SDS011;2119;48.828;12.396;2023-03-30T10:20:37;36.17;;;21.67;;
4210;SDS011;2119;48.828;12.396;2023-03-30T10:25:39;36.60;;;22.20;;
4210;SDS011;2119;48.828;12.396;2023-03-30T10:30:39;108.10;;;52.67;;
4210;SDS011;2119;48.828;12.396;2023-03-30T10:35:40;39.17;;;27.17;;
4210;SDS011;2119;48.828;12.396;2023-03-30T10:40:41;41.10;;;25.03;;
4210;SDS011;2119;48.828;12.396;2023-03-30T10:45:46;30.50;;;19.87;;
4210;SDS011;2119;48.828;12.396;2023-03-30T11:06:07;32.43;;;21.37;;
4210;SDS011;2119;48.828;12.396;2023-03-30T11:11:10;32.47;;;20.83;;
4210;SDS011;2119;48.828;12.396;2023-03-30T11:16:17;33.80;;;21.33;;
4210;SDS011;2119;48.828;12.396;2023-03-30T11:26:26;28.37;;;21.30;;
4210;SDS011;2119;48.828;12.396;2023-03-30T11:36:31;32.50;;;21.77;;
4210;SDS011;2119;48.828;12.396;2023-03-30T11:56:58;26.00;;;17.57;;
4210;SDS011;2119;48.828;12.396;2023-03-30T12:12:30;27.80;;;18.70;;
4210;SDS011;2119;48.828;12.396;2023-03-30T12:27:35;33.77;;;25.60;;
4210;SDS011;2119;48.828;12.396;2023-03-30T12:32:36;24.43;;;19.67;;
4210;SDS011;2119;48.828;12.396;2023-03-30T12:37:36;26.00;;;17.83;;
4210;SDS011;2119;48.828;12.396;2023-03-30T12:42:44;25.17;;;18.97;;
4210;SDS011;2119;48.828;12.396;2023-03-30T12:58:09;18.60;;;13.20;;
4210;SDS011;2119;48.828;12.396;2023-03-30T13:13:50;24.63;;;10.33;;
4210;SDS011;2119;48.828;12.396;2023-03-30T13:18:53;14.37;;;9.07;;
4210;SDS011;2119;48.828;12.396;2023-03-30T13:23:58;15.90;;;12.50;;
4210;SDS011;2119;48.828;12.396;2023-03-30T13:29:03;12.33;;;7.37;;
4210;SDS011;2119;48.828;12.396;2023-03-30T13:34:20;11.53;;;8.60;;
4210;SDS011;2119;48.828;12.396;2023-03-30T13:39:24;14.90;;;9.43;;
4210;SDS011;2119;48.828;12.396;2023-03-30T13:44:34;9.43;;;7.03;;
4210;SDS011;2119;48.828;12.396;2023-03-30T13:54:46;9.97;;;7.47;;
4210;SDS011;2119;48.828;12.396;2023-03-30T13:59:49;14.97;;;6.40;;
4210;SDS011;2119;48.828;12.396;2023-03-30T14:04:50;8.90;;;5.60;;
4210;SDS011;2119;48.828;12.396;2023-03-30T14:15:13;16.67;;;9.60;;
4210;SDS011;2119;48.828;12.396;2023-03-30T14:25:22;13.87;;;8.27;;
4210;SDS011;2119;48.828;12.396;2023-03-30T14:30:23;11.47;;;8.80;;
4210;SDS011;2119;48.828;12.396;2023-03-30T14:35:24;11.50;;;8.40;;
4210;SDS011;2119;48.828;12.396;2023-03-30T14:40:25;9.70;;;8.67;;
4210;SDS011;2119;48.828;12.396;2023-03-30T14:45:26;10.00;;;7.70;;
4210;SDS011;2119;48.828;12.396;2023-03-30T14:50:26;11.35;;;7.85;;
4210;SDS011;2119;48.828;12.396;2023-03-30T14:55:27;6.10;;;5.60;;
4210;SDS011;2119;48.828;12.396;2023-03-30T15:00:27;8.65;;;7.07;;
4210;SDS011;2119;48.828;12.396;2023-03-30T15:05:35;6.63;;;4.97;;
4210;SDS011;2119;48.828;12.396;2023-03-30T15:10:41;6.03;;;5.43;;
4210;SDS011;2119;48.828;12.396;2023-03-30T15:15:44;4.63;;;4.33;;
4210;SDS011;2119;48.828;12.396;2023-03-30T15:20:44;6.57;;;6.00;;
4210;SDS011;2119;48.828;12.396;2023-03-30T15:25:45;6.50;;;3.90;;
4210;SDS011;2119;48.828;12.396;2023-03-30T15:30:52;5.23;;;4.27;;
4210;SDS011;2119;48.828;12.396;2023-03-30T15:35:52;5.03;;;3.70;;
4210;SDS011;2119;48.828;12.396;2023-03-30T15:40:53;5.23;;;3.87;;
4210;SDS011;2119;48.828;12.396;2023-03-30T15:51:35;5.70;;;4.70;;
4210;SDS011;2119;48.828;12.396;2023-03-30T16:01:52;5.97;;;4.37;;
4210;SDS011;2119;48.828;12.396;2023-03-30T16:06:52;7.07;;;5.90;;
4210;SDS011;2119;48.828;12.396;2023-03-30T16:11:53;8.50;;;5.00;;
4210;SDS011;2119;48.828;12.396;2023-03-30T16:16:54;5.47;;;4.50;;
4210;SDS011;2119;48.828;12.396;2023-03-30T16:21:54;9.40;;;4.30;;
4210;SDS011;2119;48.828;12.396;2023-03-30T16:26:54;15.03;;;5.43;;
4210;SDS011;2119;48.828;12.396;2023-03-30T16:31:55;4.10;;;3.70;;
4210;SDS011;2119;48.828;12.396;2023-03-30T16:36:55;8.03;;;4.10;;
4210;SDS011;2119;48.828;12.396;2023-03-30T16:41:55;7.45;;;3.15;;
4210;SDS011;2119;48.828;12.396;2023-03-30T16:46:56;5.57;;;4.10;;
4210;SDS011;2119;48.828;12.396;2023-03-30T16:51:56;5.20;;;4.05;;
4210;SDS011;2119;48.828;12.396;2023-03-30T16:56:56;4.53;;;4.13;;
4210;SDS011;2119;48.828;12.396;2023-03-30T17:01:57;5.07;;;4.57;;
4210;SDS011;2119;48.828;12.396;2023-03-30T17:06:57;7.40;;;4.70;;
4210;SDS011;2119;48.828;12.396;2023-03-30T17:11:58;7.30;;;5.90;;
4210;SDS011;2119;48.828;12.396;2023-03-30T17:16:58;7.13;;;4.65;;
4210;SDS011;2119;48.828;12.396;2023-03-30T17:21:58;6.53;;;5.18;;
4210;SDS011;2119;48.828;12.396;2023-03-30T17:26:58;6.05;;;5.00;;
4210;SDS011;2119;48.828;12.396;2023-03-30T17:31:59;7.70;;;5.23;;
4210;SDS011;2119;48.828;12.396;2023-03-30T17:36:59;4.40;;;3.43;;
4210;SDS011;2119;48.828;12.396;2023-03-30T17:42:00;3.20;;;2.90;;
4210;SDS011;2119;48.828;12.396;2023-03-30T17:47:00;7.30;;;5.70;;
4210;SDS011;2119;48.828;12.396;2023-03-30T17:52:00;3.93;;;3.17;;
4210;SDS011;2119;48.828;12.396;2023-03-30T17:57:01;4.30;;;2.35;;
4210;SDS011;2119;48.828;12.396;2023-03-30T18:02:01;2.60;;;2.30;;
4210;SDS011;2119;48.828;12.396;2023-03-30T18:07:01;3.70;;;2.97;;
4210;SDS011;2119;48.828;12.396;2023-03-30T18:12:02;4.87;;;4.40;;
4210;SDS011;2119;48.828;12.396;2023-03-30T18:17:02;6.20;;;3.73;;
4210;SDS011;2119;48.828;12.396;2023-03-30T18:22:02;4.15;;;2.97;;
4210;SDS011;2119;48.828;12.396;2023-03-30T18:27:02;4.00;;;3.10;;
4210;SDS011;2119;48.828;12.396;2023-03-30T18:32:03;9.70;;;8.80;;
4210;SDS011;2119;48.828;12.396;2023-03-30T18:37:03;10.43;;;9.40;;
4210;SDS011;2119;48.828;12.396;2023-03-30T18:42:03;6.40;;;5.80;;
4210;SDS011;2119;48.828;12.396;2023-03-30T18:47:04;3.43;;;3.13;;
4210;SDS011;2119;48.828;12.396;2023-03-30T18:52:04;5.77;;;4.83;;
4210;SDS011;2119;48.828;12.396;2023-03-30T18:57:05;10.17;;;6.97;;
4210;SDS011;2119;48.828;12.396;2023-03-30T19:02:05;6.27;;;5.33;;
4210;SDS011;2119;48.828;12.396;2023-03-30T19:07:06;6.40;;;4.82;;
4210;SDS011;2119;48.828;12.396;2023-03-30T19:12:07;5.57;;;5.00;;
4210;SDS011;2119;48.828;12.396;2023-03-30T19:17:10;8.13;;;4.10;;
4210;SDS011;2119;48.828;12.396;2023-03-30T19:22:10;6.87;;;5.10;;
4210;SDS011;2119;48.828;12.396;2023-03-30T19:27:11;6.53;;;5.70;;
4210;SDS011;2119;48.828;12.396;2023-03-30T19:32:11;11.55;;;7.55;;
4210;SDS011;2119;48.828;12.396;2023-03-30T19:37:12;5.80;;;4.50;;
4210;SDS011;2119;48.828;12.396;2023-03-30T19:42:14;6.70;;;5.43;;
4210;SDS011;2119;48.828;12.396;2023-03-30T19:47:15;6.97;;;5.68;;
4210;SDS011;2119;48.828;12.396;2023-03-30T19:52:15;9.10;;;5.03;;
4210;SDS011;2119;48.828;12.396;2023-03-30T19:57:16;6.80;;;5.13;;
4210;SDS011;2119;48.828;12.396;2023-03-30T20:02:17;5.07;;;4.57;;
4210;SDS011;2119;48.828;12.396;2023-03-30T20:07:19;5.33;;;4.00;;
4210;SDS011;2119;48.828;12.396;2023-03-30T20:12:20;5.10;;;4.60;;
4210;SDS011;2119;48.828;12.396;2023-03-30T20:17:20;6.07;;;5.30;;
4210;SDS011;2119;48.828;12.396;2023-03-30T20:22:21;8.88;;;5.18;;
4210;SDS011;2119;48.828;12.396;2023-03-30T20:27:21;5.30;;;4.77;;
4210;SDS011;2119;48.828;12.396;2023-03-30T20:32:21;5.80;;;4.97;;
4210;SDS011;2119;48.828;12.396;2023-03-30T20:37:21;7.00;;;5.00;;
4210;SDS011;2119;48.828;12.396;2023-03-30T20:42:21;6.27;;;5.43;;
4210;SDS011;2119;48.828;12.396;2023-03-30T20:47:25;7.20;;;6.30;;
4210;SDS011;2119;48.828;12.396;2023-03-30T20:52:29;6.57;;;5.40;;
4210;SDS011;2119;48.828;12.396;2023-03-30T20:57:32;15.00;;;6.77;;
4210;SDS011;2119;48.828;12.396;2023-03-30T21:02:32;7.17;;;6.47;;
4210;SDS011;2119;48.828;12.396;2023-03-30T21:07:33;6.53;;;5.93;;
4210;SDS011;2119;48.828;12.396;2023-03-30T21:12:33;8.97;;;6.93;;
4210;SDS011;2119;48.828;12.396;2023-03-30T21:17:33;6.90;;;6.13;;
4210;SDS011;2119;48.828;12.396;2023-03-30T21:22:33;6.23;;;5.60;;
4210;SDS011;2119;48.828;12.396;2023-03-30T21:27:34;6.83;;;6.03;;
4210;SDS011;2119;48.828;12.396;2023-03-30T21:32:35;7.63;;;6.83;;
4210;SDS011;2119;48.828;12.396;2023-03-30T21:37:35;7.18;;;6.45;;
4210;SDS011;2119;48.828;12.396;2023-03-30T21:42:35;8.03;;;6.90;;
4210;SDS011;2119;48.828;12.396;2023-03-30T21:47:36;10.60;;;7.00;;
4210;SDS011;2119;48.828;12.396;2023-03-30T21:52:36;11.93;;;7.83;;
4210;SDS011;2119;48.828;12.396;2023-03-30T21:57:36;11.50;;;6.90;;
4210;SDS011;2119;48.828;12.396;2023-03-30T22:02:36;8.83;;;7.63;;
4210;SDS011;2119;48.828;12.396;2023-03-30T22:07:37;13.70;;;7.80;;
4210;SDS011;2119;48.828;12.396;2023-03-30T22:12:38;12.33;;;7.07;;
4210;SDS011;2119;48.828;12.396;2023-03-30T22:17:38;9.03;;;6.23;;
4210;SDS011;2119;48.828;12.396;2023-03-30T22:22:41;7.33;;;6.20;;
4210;SDS011;2119;48.828;12.396;2023-03-30T22:27:43;7.33;;;5.80;;
4210;SDS011;2119;48.828;12.396;2023-03-30T22:32:43;9.13;;;6.50;;
4210;SDS011;2119;48.828;12.396;2023-03-30T22:37:43;7.07;;;5.93;;
4210;SDS011;2119;48.828;12.396;2023-03-30T22:42:44;6.67;;;6.00;;
4210;SDS011;2119;48.828;12.396;2023-03-30T22:47:44;7.57;;;6.23;;
4210;SDS011;2119;48.828;12.396;2023-03-30T22:52:44;5.60;;;5.10;;
4210;SDS011;2119;48.828;12.396;2023-03-30T22:57:45;6.50;;;5.70;;
4210;SDS011;2119;48.828;12.396;2023-03-30T23:02:46;10.43;;;6.03;;
4210;SDS011;2119;48.828;12.396;2023-03-30T23:07:47;5.20;;;4.87;;
4210;SDS011;2119;48.828;12.396;2023-03-30T23:12:47;11.00;;;6.80;;
4210;SDS011;2119;48.828;12.396;2023-03-30T23:17:48;8.90;;;6.10;;
4210;SDS011;2119;48.828;12.396;2023-03-30T23:22:48;10.18;;;6.43;;
4210;SDS011;2119;48.828;12.396;2023-03-30T23:27:48;11.07;;;5.85;;
4210;SDS011;2119;48.828;12.396;2023-03-30T23:32:48;12.07;;;4.53;;
4210;SDS011;2119;48.828;12.396;2023-03-30T23:37:48;5.60;;;4.87;;
4210;SDS011;2119;48.828;12.396;2023-03-30T23:42:51;5.33;;;4.93;;
4210;SDS011;2119;48.828;12.396;2023-03-30T23:47:51;5.50;;;4.80;;
4210;SDS011;2119;48.828;12.396;2023-03-30T23:52:51;5.45;;;4.90;;
4210;SDS011;2119;48.828;12.396;2023-03-30T23:57:52;5.10;;;4.60;;
